createdAt,value
2023-03-02T00:02:49.404Z,66.42
2023-03-02T00:05:52.118Z,66.11
2023-03-02T00:08:54.057Z,66.52
2023-03-02T00:11:57.778Z,66.39
2023-03-02T00:14:59.153Z,65.98
2023-03-02T00:18:01.853Z,66.76
2023-03-02T00:21:03.458Z,67.13
2023-03-02T00:24:06.975Z,66.85
2023-03-02T00:27:08.939Z,66.93
2023-03-02T00:30:13.216Z,67.12
2023-03-02T00:33:16.240Z,67.31
2023-03-02T00:36:19.780Z,66.97
2023-03-02T00:39:22.341Z,67.90
2023-03-02T00:42:24.406Z,67.69
2023-03-02T00:45:27.057Z,67.50
2023-03-02T00:48:28.352Z,67.85
2023-03-02T00:51:30.903Z,67.26
2023-03-02T00:54:32.381Z,67.22
2023-03-02T00:57:35.610Z,67.11
2023-03-02T01:00:38.442Z,67.29
2023-03-02T01:03:39.821Z,67.33
2023-03-02T01:06:47.913Z,67.48
2023-03-02T01:09:49.186Z,67.58
2023-03-02T01:12:52.441Z,67.45
2023-03-02T01:16:01.684Z,67.42
2023-03-02T01:19:03.062Z,67.62
2023-03-02T01:25:26.995Z,67.37
2023-03-02T01:28:28.970Z,67.92
2023-03-02T01:31:32.380Z,68.29
2023-03-02T01:34:33.767Z,67.79
2023-03-02T01:37:36.280Z,68.34
2023-03-02T01:45:01.169Z,67.79
2023-03-02T01:48:02.708Z,68.08
2023-03-02T01:51:06.442Z,68.15
2023-03-02T01:54:22.261Z,68.46
2023-03-02T01:57:29.311Z,68.42
2023-03-02T02:00:36.401Z,67.76
2023-03-02T02:03:38.619Z,68.22
2023-03-02T02:06:44.305Z,67.95
2023-03-02T02:09:49.138Z,68.35
2023-03-02T02:12:50.791Z,68.25
2023-03-02T02:15:52.735Z,68.23
2023-03-02T02:18:55.512Z,68.80
2023-03-02T02:21:56.936Z,69.03
2023-03-02T02:25:03.139Z,68.38
2023-03-02T02:28:10.533Z,68.24
2023-03-02T02:31:16.116Z,68.64
2023-03-02T02:34:23.456Z,70.06
2023-03-02T02:37:29.555Z,69.72
2023-03-02T02:40:44.299Z,68.72
2023-03-02T02:43:46.565Z,68.77
2023-03-02T02:46:47.908Z,68.73
2023-03-02T02:49:52.709Z,69.45
2023-03-02T02:52:59.307Z,69.91
2023-03-02T02:56:01.669Z,69.82
2023-03-02T02:59:11.076Z,70.12
2023-03-02T03:02:18.261Z,69.53
2023-03-02T03:05:19.604Z,69.36
2023-03-02T03:08:51.641Z,68.44
2023-03-02T03:11:56.050Z,69.11
2023-03-02T03:14:59.672Z,69.27
2023-03-02T03:18:01.144Z,69.23
2023-03-02T03:21:02.604Z,68.98
2023-03-02T03:24:04.690Z,69.09
2023-03-02T03:27:07.406Z,68.85
2023-03-02T03:30:11.162Z,69.53
2023-03-02T03:33:13.752Z,68.95
2023-03-02T03:36:15.355Z,70.33
2023-03-02T03:39:17.807Z,69.94
2023-03-02T03:42:19.310Z,69.57
2023-03-02T03:45:21.436Z,69.28
2023-03-02T03:48:22.978Z,70.26
2023-03-02T03:51:24.875Z,69.17
2023-03-02T03:54:26.323Z,68.74
2023-03-02T03:57:28.449Z,69.59
2023-03-02T04:00:30.732Z,70.00
2023-03-02T04:03:32.052Z,70.31
2023-03-02T04:06:34.083Z,70.35
2023-03-02T04:09:37.304Z,70.53
2023-03-02T04:12:40.318Z,70.05
2023-03-02T04:15:44.400Z,69.76
2023-03-02T04:18:47.219Z,69.09
2023-03-02T04:21:51.318Z,69.73
2023-03-02T04:24:52.899Z,69.54
2023-03-02T04:27:54.996Z,70.25
2023-03-02T04:30:57.019Z,70.18
2023-03-02T04:33:59.101Z,69.82
2023-03-02T04:37:00.622Z,69.73
2023-03-02T04:40:02.354Z,70.11
2023-03-02T04:43:03.832Z,69.42
2023-03-02T04:46:06.340Z,70.01
2023-03-02T04:49:08.005Z,70.23
2023-03-02T04:52:09.759Z,70.70
2023-03-02T04:55:17.978Z,70.96
2023-03-02T04:58:19.314Z,70.76
2023-03-02T05:01:21.731Z,70.57
2023-03-02T05:04:23.182Z,70.92
2023-03-02T05:07:24.497Z,70.87
2023-03-02T05:10:27.462Z,70.37
2023-03-02T05:13:28.942Z,71.06
2023-03-02T05:16:33.267Z,71.66
2023-03-02T05:19:34.903Z,72.37
2023-03-02T05:22:37.503Z,71.49
2023-03-02T05:25:39.133Z,72.56
2023-03-02T05:28:40.980Z,71.02
2023-03-02T05:31:44.680Z,72.40
2023-03-02T05:34:46.086Z,71.84
2023-03-02T05:37:47.731Z,72.78
2023-03-02T05:40:49.821Z,72.65
2023-03-02T05:43:51.370Z,71.77
2023-03-02T05:46:53.565Z,72.48
2023-03-02T05:49:55.316Z,72.95
2023-03-02T05:52:57.631Z,72.68
2023-03-02T05:55:58.937Z,72.36
2023-03-02T05:59:00.270Z,71.84
2023-03-02T06:02:03.724Z,72.86
2023-03-02T06:05:06.181Z,72.47
2023-03-02T06:08:07.800Z,73.31
2023-03-02T06:11:09.746Z,74.20
2023-03-02T06:14:11.072Z,72.85
2023-03-02T06:17:13.026Z,73.62
2023-03-02T06:20:15.352Z,73.58
2023-03-02T06:23:16.663Z,72.94
2023-03-02T06:26:17.980Z,73.55
2023-03-02T06:29:19.365Z,73.04
2023-03-02T06:32:21.684Z,73.67
2023-03-02T06:35:23.596Z,71.37
2023-03-02T06:38:25.181Z,72.20
2023-03-02T06:41:26.472Z,73.10
2023-03-02T06:44:27.849Z,74.48
2023-03-02T06:47:30.435Z,73.49
2023-03-02T06:50:32.486Z,73.78
2023-03-02T06:53:33.787Z,74.30
2023-03-02T06:56:35.517Z,73.41
2023-03-02T06:59:37.095Z,72.81
2023-03-02T07:02:39.079Z,73.03
2023-03-02T07:05:40.378Z,74.01
2023-03-02T07:08:41.999Z,74.75
2023-03-02T07:11:43.400Z,75.47
2023-03-02T07:14:44.707Z,74.45
2023-03-02T07:17:47.041Z,75.16
2023-03-02T07:20:48.337Z,74.40
2023-03-02T07:23:49.628Z,74.08
2023-03-02T07:26:50.947Z,73.92
2023-03-02T07:29:52.245Z,73.77
2023-03-02T07:32:54.197Z,74.09
2023-03-02T07:35:55.563Z,74.07
2023-03-02T07:38:57.145Z,73.78
2023-03-02T07:41:59.011Z,73.19
2023-03-02T07:45:00.457Z,71.85
2023-03-02T07:48:04.300Z,71.78
2023-03-02T07:51:06.518Z,71.42
2023-03-02T07:54:07.929Z,73.26
2023-03-02T07:57:09.354Z,72.80
2023-03-02T08:00:11.831Z,72.99
2023-03-02T08:03:13.866Z,72.49
2023-03-02T08:06:15.319Z,72.70
2023-03-02T08:09:17.157Z,72.17
2023-03-02T08:12:18.585Z,72.02
2023-03-02T08:15:19.907Z,71.98
2023-03-02T08:18:22.040Z,71.22
2023-03-02T08:21:25.621Z,71.37
2023-03-02T08:24:27.032Z,71.89
2023-03-02T08:27:28.675Z,72.38
2023-03-02T08:30:30.127Z,70.78
2023-03-02T08:33:32.732Z,72.03
2023-03-02T08:36:34.318Z,72.13
2023-03-02T08:39:36.045Z,70.49
2023-03-02T08:42:37.558Z,69.59
2023-03-02T08:45:38.861Z,70.58
2023-03-02T08:48:41.333Z,70.08
2023-03-02T08:51:42.968Z,70.36
2023-03-02T08:54:44.494Z,71.93
2023-03-02T08:57:46.131Z,70.57
2023-03-02T09:00:47.512Z,70.29
2023-03-02T09:03:50.077Z,70.88
2023-03-02T09:06:51.450Z,68.78
2023-03-02T09:09:52.916Z,69.84
2023-03-02T09:12:54.258Z,70.14
2023-03-02T09:15:55.737Z,70.69
2023-03-02T09:18:57.680Z,69.85
2023-03-02T09:21:58.979Z,69.65
2023-03-02T09:25:00.248Z,69.55
2023-03-02T09:28:01.712Z,68.49
2023-03-02T09:31:05.190Z,69.20
2023-03-02T09:34:07.197Z,67.26
2023-03-02T09:37:08.505Z,66.45
2023-03-02T09:40:17.155Z,68.47
2023-03-02T09:43:32.680Z,68.56
2023-03-02T09:46:43.603Z,67.83
2023-03-02T09:49:57.299Z,67.68
2023-03-02T09:53:18.111Z,67.73
2023-03-02T09:56:20.733Z,68.08
2023-03-02T09:59:26.098Z,67.84
2023-03-02T10:02:30.781Z,67.86
2023-03-02T10:05:40.123Z,66.97
2023-03-02T10:08:42.666Z,67.49
2023-03-02T10:12:04.006Z,68.76
2023-03-02T10:15:12.424Z,67.38
2023-03-02T10:18:20.426Z,66.77
2023-03-02T10:21:27.747Z,66.64
2023-03-02T10:24:35.400Z,68.00
2023-03-02T10:27:39.068Z,67.35
2023-03-02T10:30:41.212Z,66.34
2023-03-02T10:33:42.924Z,66.30
2023-03-02T10:36:47.049Z,64.89
2023-03-02T10:39:48.973Z,65.13
2023-03-02T10:42:50.488Z,64.86
2023-03-02T10:45:59.504Z,64.68
2023-03-02T10:49:00.873Z,65.08
2023-03-02T10:52:04.966Z,63.84
2023-03-02T10:55:13.531Z,62.66
2023-03-02T10:58:25.199Z,62.26
2023-03-02T11:01:26.770Z,63.18
2023-03-02T11:04:28.632Z,62.02
2023-03-02T11:07:30.680Z,59.64
2023-03-02T11:10:34.925Z,60.52
2023-03-02T11:13:38.117Z,61.83
2023-03-02T11:16:39.520Z,62.22
2023-03-02T11:19:41.823Z,60.57
2023-03-02T11:22:52.585Z,56.84
2023-03-02T11:25:57.287Z,56.39
2023-03-02T11:29:03.387Z,53.52
2023-03-02T11:32:12.931Z,54.50
2023-03-02T11:35:24.642Z,51.91
2023-03-02T11:38:30.119Z,53.13
2023-03-02T11:41:35.238Z,54.79
2023-03-02T11:44:36.850Z,52.38
2023-03-02T11:47:40.517Z,52.12
2023-03-02T11:50:50.924Z,51.84
2023-03-02T11:53:58.009Z,50.74
2023-03-02T11:56:59.577Z,50.09
2023-03-02T12:00:15.792Z,49.85
2023-03-02T12:03:22.994Z,47.36
2023-03-02T12:06:29.002Z,49.30
2023-03-02T12:09:34.841Z,50.34
2023-03-02T12:12:42.240Z,50.26
2023-03-02T12:15:46.009Z,51.07
2023-03-02T12:18:48.409Z,49.31
2023-03-02T12:21:58.322Z,48.85
2023-03-02T12:25:04.654Z,50.04
2023-03-02T12:28:24.535Z,51.23
2023-03-02T12:31:26.803Z,49.54
2023-03-02T12:34:34.936Z,50.20
2023-03-02T12:37:44.752Z,52.95
2023-03-02T12:41:01.732Z,50.88
2023-03-02T12:44:18.932Z,50.54
2023-03-02T12:47:26.436Z,52.56
2023-03-02T12:50:31.750Z,53.08
2023-03-02T12:53:33.225Z,53.99
2023-03-02T12:56:35.508Z,51.70
2023-03-02T12:59:37.059Z,52.02
2023-03-02T13:02:46.167Z,51.39
2023-03-02T13:05:47.633Z,52.83
2023-03-02T13:08:52.439Z,52.87
2023-03-02T13:11:54.633Z,51.94
2023-03-02T13:14:57.755Z,52.66
2023-03-02T13:17:59.774Z,52.70
2023-03-02T13:21:03.892Z,52.70
2023-03-02T13:24:25.969Z,52.81
2023-03-02T13:27:28.580Z,54.15
2023-03-02T13:30:31.731Z,54.01
2023-03-02T13:33:35.256Z,54.33
2023-03-02T13:36:38.399Z,53.52
2023-03-02T13:39:39.750Z,54.01
2023-03-02T13:42:41.852Z,55.57
2023-03-02T13:45:51.882Z,55.59
2023-03-02T13:49:04.011Z,57.35
2023-03-02T13:52:21.563Z,56.67
2023-03-02T13:55:23.692Z,55.89
2023-03-02T13:58:27.414Z,57.01
2023-03-02T14:01:29.406Z,56.05
2023-03-02T14:04:30.956Z,56.86
2023-03-02T14:07:32.286Z,57.77
2023-03-02T14:10:33.727Z,58.39
2023-03-02T14:13:40.031Z,58.33
2023-03-02T14:16:41.310Z,59.37
2023-03-02T14:19:42.823Z,59.98
2023-03-02T14:22:44.329Z,61.82
2023-03-02T14:25:46.109Z,60.27
2023-03-02T14:28:53.658Z,62.53
2023-03-02T14:32:04.078Z,62.30
2023-03-02T14:35:08.543Z,60.91
2023-03-02T14:38:11.074Z,60.22
2023-03-02T14:41:16.122Z,61.90
2023-03-02T14:44:18.267Z,61.15
2023-03-02T14:47:21.057Z,62.57
2023-03-02T14:50:22.933Z,62.32
2023-03-02T14:53:29.669Z,63.71
2023-03-02T14:56:31.494Z,63.73
2023-03-02T14:59:33.603Z,63.64
2023-03-02T15:02:35.195Z,64.47
2023-03-02T15:05:36.610Z,63.71
2023-03-02T15:08:38.135Z,63.62
2023-03-02T15:11:39.470Z,63.64
2023-03-02T15:14:41.586Z,63.75
2023-03-02T15:17:42.977Z,64.94
2023-03-02T15:20:44.426Z,63.33
2023-03-02T15:23:45.984Z,64.89
2023-03-02T15:26:47.423Z,66.15
2023-03-02T15:29:50.070Z,65.23
2023-03-02T15:32:52.479Z,64.29
2023-03-02T15:35:55.521Z,65.57
2023-03-02T15:38:57.130Z,65.42
2023-03-02T15:41:58.437Z,67.20
2023-03-02T15:45:00.733Z,66.04
2023-03-02T15:48:02.159Z,67.75
2023-03-02T15:51:06.315Z,67.76
2023-03-02T15:54:10.057Z,66.92
2023-03-02T15:57:11.844Z,66.89
2023-03-02T16:00:15.743Z,67.73
2023-03-02T16:03:18.488Z,67.96
2023-03-02T16:06:20.008Z,69.25
2023-03-02T16:09:21.436Z,68.46
2023-03-02T16:12:24.076Z,69.77
2023-03-02T16:15:25.998Z,68.86
2023-03-02T16:18:27.379Z,68.75
2023-03-02T16:21:29.793Z,68.09
2023-03-02T16:24:31.224Z,67.90
2023-03-02T16:27:32.528Z,66.63
2023-03-02T16:30:35.695Z,69.01
2023-03-02T16:33:37.412Z,67.78
2023-03-02T16:36:40.274Z,68.22
2023-03-02T16:39:41.877Z,68.04
2023-03-02T16:42:43.324Z,67.80
2023-03-02T16:45:45.574Z,67.55
2023-03-02T16:48:48.516Z,68.66
2023-03-02T16:51:49.940Z,69.38
2023-03-02T16:54:51.283Z,68.00
2023-03-02T16:57:53.079Z,69.16
2023-03-02T17:00:55.942Z,69.44
2023-03-02T17:03:57.346Z,68.79
2023-03-02T17:07:00.806Z,69.22
2023-03-02T17:10:02.612Z,70.67
2023-03-02T17:13:04.584Z,68.91
2023-03-02T17:16:07.324Z,69.85
2023-03-02T17:19:08.622Z,70.24
2023-03-02T17:22:10.070Z,71.40
2023-03-02T17:25:12.410Z,71.54
2023-03-02T17:28:14.254Z,71.30
2023-03-02T17:31:16.515Z,71.57
2023-03-02T17:34:17.976Z,71.25
2023-03-02T17:37:19.327Z,71.26
2023-03-02T17:40:20.772Z,70.91
2023-03-02T17:43:22.257Z,71.99
2023-03-02T17:46:25.866Z,72.27
2023-03-02T17:49:27.248Z,71.97
2023-03-02T17:52:29.166Z,71.36
2023-03-02T17:55:30.510Z,70.85
2023-03-02T17:58:44.318Z,71.85
2023-03-02T18:01:47.371Z,71.61
2023-03-02T18:04:48.901Z,69.99
2023-03-02T18:07:52.070Z,70.60
2023-03-02T18:10:53.412Z,71.03
2023-03-02T18:13:55.223Z,72.32
2023-03-02T18:16:57.564Z,71.51
2023-03-02T18:19:58.913Z,71.32
2023-03-02T18:23:00.905Z,72.54
2023-03-02T18:26:02.394Z,72.93
2023-03-02T18:29:03.958Z,72.18
2023-03-02T18:32:10.031Z,71.38
2023-03-02T18:35:11.773Z,71.04
2023-03-02T18:38:13.121Z,71.94
2023-03-02T18:41:14.498Z,70.53
2023-03-02T18:44:17.149Z,72.09
2023-03-02T18:47:19.230Z,72.89
2023-03-02T18:50:20.970Z,73.61
2023-03-02T18:53:22.296Z,74.00
2023-03-02T18:56:24.574Z,73.49
2023-03-02T18:59:25.988Z,74.05
2023-03-02T19:02:28.292Z,74.84
2023-03-02T19:05:29.797Z,73.32
2023-03-02T19:08:31.969Z,73.01
2023-03-02T19:11:33.314Z,74.33
2023-03-02T19:14:34.654Z,74.53
2023-03-02T19:17:37.917Z,73.93
2023-03-02T19:20:39.240Z,73.94
2023-03-02T19:23:41.119Z,74.37
2023-03-02T19:26:42.466Z,73.45
2023-03-02T19:29:43.766Z,73.46
2023-03-02T19:32:46.505Z,75.39
2023-03-02T19:35:47.881Z,75.55
2023-03-02T19:38:49.262Z,74.01
2023-03-02T19:41:50.773Z,74.52
2023-03-02T19:44:52.314Z,75.08
2023-03-02T19:47:57.478Z,75.34
2023-03-02T19:50:59.094Z,76.35
2023-03-02T19:54:00.655Z,75.20
2023-03-02T19:57:02.834Z,76.32
2023-03-02T20:00:04.435Z,75.63
2023-03-02T20:03:07.843Z,76.21
2023-03-02T20:06:09.323Z,75.13
2023-03-02T20:09:13.778Z,75.16
2023-03-02T20:12:15.059Z,74.82
2023-03-02T20:15:17.096Z,75.52
2023-03-02T20:18:19.996Z,75.34
2023-03-02T20:21:25.122Z,75.18
2023-03-02T20:24:26.433Z,75.18
2023-03-02T20:27:27.907Z,74.10
2023-03-02T20:30:32.572Z,74.64
2023-03-02T20:33:38.247Z,75.16
2023-03-02T20:36:39.586Z,73.91
2023-03-02T20:39:47.231Z,75.27
2023-03-02T20:42:48.646Z,75.91
2023-03-02T20:45:50.236Z,76.98
2023-03-02T20:48:52.645Z,75.89
2023-03-02T20:51:55.986Z,74.92
2023-03-02T20:54:57.498Z,76.15
2023-03-02T20:58:00.485Z,75.87
2023-03-02T21:01:01.893Z,74.60
2023-03-02T21:04:04.236Z,74.42
2023-03-02T21:07:05.555Z,75.09
2023-03-02T21:10:12.853Z,75.15
2023-03-02T21:13:14.441Z,75.55
2023-03-02T21:16:19.076Z,75.71
2023-03-02T21:19:21.313Z,74.42
2023-03-02T21:22:22.592Z,74.35
2023-03-02T21:25:23.929Z,74.57
2023-03-02T21:28:25.549Z,73.32
2023-03-02T21:31:26.924Z,73.99
2023-03-02T21:34:29.464Z,73.98
2023-03-02T21:37:30.769Z,74.24
2023-03-02T21:40:35.596Z,73.67
2023-03-02T21:43:37.158Z,73.53
2023-03-02T21:46:38.903Z,73.29
2023-03-02T21:49:41.106Z,73.31
2023-03-02T21:52:42.471Z,73.02
2023-03-02T21:55:45.023Z,72.24
2023-03-02T21:58:47.603Z,71.60
2023-03-02T22:01:49.094Z,71.46
2023-03-02T22:04:51.018Z,72.28
2023-03-02T22:07:52.457Z,72.34
2023-03-02T22:10:53.791Z,72.06
2023-03-02T22:13:58.129Z,72.52
2023-03-02T22:16:59.446Z,71.64
2023-03-02T22:20:01.446Z,72.63
2023-03-02T22:23:11.041Z,71.65
2023-03-02T22:26:15.616Z,71.89
2023-03-02T22:29:21.816Z,72.79
2023-03-02T22:32:26.335Z,70.75
2023-03-02T22:35:28.342Z,71.32
2023-03-02T22:38:31.055Z,72.00
2023-03-02T22:41:32.487Z,71.63
2023-03-02T22:44:34.316Z,71.14
2023-03-02T22:47:35.872Z,69.54
2023-03-02T22:50:40.777Z,71.48
2023-03-02T22:53:47.369Z,72.52
2023-03-02T22:56:50.499Z,71.05
2023-03-02T23:00:13.513Z,71.28
2023-03-02T23:03:17.640Z,70.04
2023-03-02T23:06:28.976Z,69.28
2023-03-02T23:09:33.431Z,71.82
2023-03-02T23:12:35.053Z,69.92
2023-03-02T23:15:36.748Z,70.17
2023-03-02T23:18:38.233Z,69.96
2023-03-02T23:21:44.401Z,70.55
2023-03-02T23:24:45.981Z,70.93
2023-03-02T23:27:47.463Z,69.50
2023-03-02T23:30:49.332Z,69.14
2023-03-02T23:33:50.688Z,69.93
2023-03-02T23:36:52.792Z,70.61
2023-03-02T23:39:54.428Z,70.85
2023-03-02T23:42:55.949Z,69.30
2023-03-02T23:45:57.427Z,69.76
2023-03-02T23:48:58.867Z,72.39
2023-03-02T23:52:01.079Z,71.54
2023-03-02T23:55:02.867Z,68.90
2023-03-02T23:58:04.329Z,70.79
